Time;durP1;ratioP1;P1;durP2;ratioP2;P2;SDS_P1;SDS_P2;PMS_P1;PMS_P2;Temp;Humidity;BMP_temperature;BMP_pressure;BME280_temperature;BME280_humidity;BME280_pressure;Samples;Min_cycle;Max_cycle;Signal;HPM_P1;HPM_P2
2022/01/22 00:00:34;;;;;;;19.27;12.63;;;;;;;-1.27;100.00;97499.88;5060638;28;20704;-79
2022/01/22 00:03:01;;;;;;;24.43;12.47;;;;;;;-1.24;100.00;97499.75;5069316;28;20039;-80
2022/01/22 00:05:27;;;;;;;18.23;11.33;;;;;;;-1.29;100.00;97502.50;5053252;28;20553;-80
2022/01/22 00:07:53;;;;;;;19.37;11.73;;;;;;;-1.30;100.00;97493.09;5054492;28;20486;-80
2022/01/22 00:10:22;;;;;;;19.67;11.93;;;;;;;-1.30;100.00;97490.50;5045933;28;20052;-80
2022/01/22 00:15:23;;;;;;;20.50;12.07;;;;;;;-1.26;100.00;97489.50;5071144;28;20471;-80
2022/01/22 00:17:53;;;;;;;19.73;12.57;;;;;;;-1.28;100.00;97485.28;5077812;28;20453;-80
2022/01/22 00:20:22;;;;;;;18.93;12.00;;;;;;;-1.28;100.00;97482.69;5056926;28;20466;-80
2022/01/22 00:22:49;;;;;;;18.37;11.60;;;;;;;-1.26;100.00;97483.50;5071596;28;20469;-80
2022/01/22 00:25:17;;;;;;;19.50;11.97;;;;;;;-1.26;100.00;97478.34;5071195;28;20534;-80
2022/01/22 00:27:45;;;;;;;18.57;12.87;;;;;;;-1.30;100.00;97474.19;5085485;28;20465;-80
2022/01/22 00:30:13;;;;;;;22.97;13.47;;;;;;;-1.30;100.00;97475.03;5059989;28;20836;-76
2022/01/22 00:32:39;;;;;;;21.60;14.17;;;;;;;-1.30;100.00;97471.63;5059329;28;20519;-76
2022/01/22 00:35:06;;;;;;;24.40;13.43;;;;;;;-1.23;100.00;97455.84;5052746;28;21010;-76
2022/01/22 00:37:33;;;;;;;22.10;14.13;;;;;;;-1.23;100.00;97470.47;5055142;28;20074;-77
2022/01/22 00:39:59;;;;;;;25.43;14.50;;;;;;;-1.25;100.00;97473.09;5045616;28;20556;-76
2022/01/22 00:42:25;;;;;;;20.70;13.47;;;;;;;-1.24;100.00;97469.66;5038022;28;20431;-76
2022/01/22 00:44:52;;;;;;;24.10;14.77;;;;;;;-1.22;100.00;97475.56;5069388;28;20136;-77
2022/01/22 00:47:18;;;;;;;24.33;15.10;;;;;;;-1.18;100.00;97468.56;5063354;28;20908;-77
2022/01/22 00:49:46;;;;;;;21.67;13.40;;;;;;;-1.14;100.00;97475.31;5052469;28;20025;-76
2022/01/22 00:52:11;;;;;;;20.87;14.80;;;;;;;-1.12;100.00;97467.50;5046604;28;20441;-76
2022/01/22 00:54:37;;;;;;;20.80;13.93;;;;;;;-1.17;100.00;97464.22;5041985;28;20554;-77
2022/01/22 00:57:04;;;;;;;23.23;14.73;;;;;;;-1.12;100.00;97475.25;5049784;28;20036;-76
2022/01/22 00:59:29;;;;;;;22.00;13.53;;;;;;;-1.13;100.00;97466.66;5056434;28;20069;-77
2022/01/22 01:01:55;;;;;;;21.90;13.97;;;;;;;-1.12;100.00;97467.50;5086077;28;20482;-77
2022/01/22 01:04:21;;;;;;;22.17;13.43;;;;;;;-1.11;100.00;97475.19;5063106;28;20025;-76
2022/01/22 01:06:48;;;;;;;20.47;13.13;;;;;;;-1.12;100.00;97467.50;5057951;28;20470;-77
2022/01/22 01:09:14;;;;;;;24.10;15.47;;;;;;;-1.09;100.00;97475.13;5065145;28;20040;-77
2022/01/22 01:11:46;;;;;;;25.70;15.43;;;;;;;-1.10;100.00;97474.28;5053948;28;20454;-76
2022/01/22 01:14:18;;;;;;;18.63;12.77;;;;;;;-1.11;100.00;97474.34;5052519;28;21041;-76
2022/01/22 01:33:11;;;;;;;21.73;12.73;;;;;;;-1.05;100.00;97489.59;5053786;28;20470;-77
2022/01/22 01:35:39;;;;;;;;;;;;;;;-0.97;100.00;97490.19;5033354;28;20506;-77
2022/01/22 01:38:05;;;;;;;18.80;12.20;;;;;;;-0.99;100.00;97494.53;5037694;28;19916;-77
2022/01/22 01:40:33;;;;;;;19.87;12.30;;;;;;;-1.01;100.00;97488.59;5062185;28;20447;-77
2022/01/22 01:46:14;;;;;;;18.73;11.63;;;;;;;-0.96;100.00;97482.34;5081369;28;20486;-77
2022/01/22 01:48:42;;;;;;;19.03;11.90;;;;;;;-0.96;100.00;97481.53;5053280;28;20063;-77
2022/01/22 01:51:08;;;;;;;22.53;12.80;;;;;;;-0.95;100.00;97475.44;5047654;28;20484;-76
2022/01/22 01:53:58;;;;;;;20.90;12.97;;;;;;;-0.93;100.00;97472.81;5080434;28;21018;-77
2022/01/22 01:59:12;;;;;;;24.67;14.50;;;;;;;-0.93;100.00;97478.81;5037326;28;20462;-75
2022/01/22 02:01:38;;;;;;;24.17;13.93;;;;;;;-0.88;100.00;97478.63;5052929;28;20522;-77
2022/01/22 02:04:05;;;;;;;24.17;12.87;;;;;;;-0.89;100.00;97485.56;5050630;28;20836;-76
2022/01/22 02:06:30;;;;;;;24.50;14.47;;;;;;;-0.87;100.00;97467.41;5054550;28;20134;-77
2022/01/22 02:08:56;;;;;;;26.33;15.00;;;;;;;-0.84;100.00;97480.19;5060652;28;20548;-78
2022/01/22 02:11:27;;;;;;;26.83;15.97;;;;;;;-0.86;100.00;97482.84;5041557;28;20409;-75
2022/01/22 02:25:18;;;;;;;24.10;14.83;;;;;;;-0.84;100.00;97473.31;5066577;28;20470;-77
2022/01/22 02:27:44;;;;;;;32.93;15.63;;;;;;;-0.84;100.00;97475.91;5057232;28;20831;-77
2022/01/22 02:30:21;;;;;;;30.43;15.97;;;;;;;-0.84;100.00;97468.16;5062240;28;20027;-77
2022/01/22 02:33:31;;;;;;;31.33;15.47;;;;;;;-0.83;100.00;97469.81;5075086;28;20475;-78
2022/01/22 02:36:15;;;;;;;30.37;16.57;;;;;;;-0.80;100.00;97464.53;5040212;28;20480;-77
2022/01/22 02:38:57;;;;;;;26.85;15.13;;;;;;;-0.82;100.00;97458.59;5062691;28;20485;-77
2022/01/22 02:41:25;;;;;;;28.17;16.30;;;;;;;-0.81;100.00;97455.09;5046578;28;20044;-77
2022/01/22 02:43:54;;;;;;;33.07;17.47;;;;;;;-0.80;100.00;97443.88;5059207;28;20811;-78
2022/01/22 02:46:23;;;;;;;26.13;15.30;;;;;;;-0.79;100.00;97440.38;5062107;28;20446;-78
2022/01/22 02:48:50;;;;;;;30.83;16.27;;;;;;;-0.80;100.00;97432.72;5045428;28;20467;-77
2022/01/22 02:51:16;;;;;;;32.03;16.83;;;;;;;-0.80;100.00;97438.72;5049321;28;20557;-77
2022/01/22 02:53:43;;;;;;;27.90;16.93;;;;;;;-0.69;100.00;97446.03;5038765;28;20557;-76
2022/01/22 02:56:10;;;;;;;31.03;17.10;;;;;;;-0.74;100.00;97446.22;5062617;28;21026;-77
2022/01/22 02:58:36;;;;;;;27.83;16.57;;;;;;;-0.74;100.00;97446.22;5087255;28;20034;-76
2022/01/22 03:01:02;;;;;;;30.37;17.20;;;;;;;-0.72;100.00;97447.00;5037115;28;20518;-77
2022/01/22 03:03:28;;;;;;;32.83;18.47;;;;;;;-0.75;100.00;97444.53;5062203;28;20446;-76
2022/01/22 03:05:54;;;;;;;26.97;15.87;;;;;;;-0.68;100.00;97446.88;5066111;28;20481;-76
2022/01/22 03:08:24;;;;;;;29.60;16.23;;;;;;;-0.72;100.00;97452.16;5061582;28;20031;-76
2022/01/22 03:10:52;;;;;;;28.80;17.20;;;;;;;-0.67;100.00;97449.41;5068626;28;20470;-76
2022/01/22 03:16:13;;;;;;;28.93;15.97;;;;;;;-0.68;100.00;97446.88;5063058;28;20524;-76
2022/01/22 03:18:47;;;;;;;31.40;17.03;;;;;;;-0.71;100.00;97433.16;5064129;28;20472;-76
2022/01/22 03:29:21;;;;;;;29.10;17.17;;;;;;;-0.63;100.00;97448.38;5057713;28;20498;-77
2022/01/22 03:31:48;;;;;;;26.70;15.73;;;;;;;-0.58;100.00;97450.78;5061577;28;20482;-77
2022/01/22 03:34:14;;;;;;;30.27;16.20;;;;;;;-0.62;100.00;97447.47;5079902;28;20474;-77
2022/01/22 03:36:40;;;;;;;28.20;15.17;;;;;;;-0.65;100.00;97437.25;5051755;28;20447;-77
2022/01/22 03:39:09;;;;;;;31.23;15.03;;;;;;;-0.62;100.00;97438.88;5053891;28;20470;-76
2022/01/22 03:41:38;;;;;;;26.43;16.40;;;;;;;-0.59;100.00;97438.78;5044794;28;20493;-77
2022/01/22 03:44:05;;;;;;;21.37;14.73;;;;;;;-0.57;100.00;97439.53;5059945;28;20899;-76
2022/01/22 03:46:33;;;;;;;21.67;13.27;;;;;;;-0.59;100.00;97438.78;5047279;28;20462;-76
2022/01/22 03:48:59;;;;;;;23.93;13.63;;;;;;;-0.59;100.00;97441.34;5048747;28;20455;-77
2022/01/22 03:51:24;;;;;;;20.40;13.33;;;;;;;-0.58;100.00;97432.69;5051295;28;20889;-76
2022/01/22 03:53:58;;;;;;;22.47;13.87;;;;;;;-0.57;100.00;97439.53;5058463;28;20028;-77
2022/01/22 03:56:25;;;;;;;20.48;13.40;;;;;;;-0.57;100.00;97442.13;5043849;28;20033;-76
2022/01/22 03:59:13;;;;;;;22.37;14.00;;;;;;;-0.56;100.00;97438.66;5046795;28;20120;-76
2022/01/22 04:07:31;;;;;;;19.50;13.00;;;;;;;-0.54;100.00;97442.00;5059661;28;20466;-77
2022/01/22 04:09:48;;;;;;;19.07;12.93;;;;;;;-0.54;100.00;97440.28;5060228;28;20501;-76
2022/01/22 04:12:18;;;;;;;22.30;12.90;;;;;;;-0.52;100.00;97442.78;5045685;28;20481;-77
2022/01/22 04:14:54;;;;;;;24.70;14.23;;;;;;;-0.54;100.00;97440.28;5061267;28;20467;-77
2022/01/22 04:17:39;;;;;;;19.97;13.77;;;;;;;-0.52;100.00;97440.19;5051784;28;20454;-76
2022/01/22 04:25:37;;;;;;;27.77;16.30;;;;;;;-0.47;100.00;97448.59;5064236;28;20494;-76
2022/01/22 04:28:03;;;;;;;25.60;16.37;;;;;;;-0.45;100.00;97451.97;5056396;28;20462;-77
2022/01/22 04:30:29;;;;;;;29.63;17.27;;;;;;;-0.42;100.00;97457.03;5046196;28;20534;-77
2022/01/22 04:32:55;;;;;;;28.40;17.63;;;;;;;-0.44;100.00;97452.81;5076174;28;20039;-76
2022/01/22 04:35:22;;;;;;;29.40;17.47;;;;;;;-0.46;100.00;97450.28;5070131;28;20012;-76
2022/01/22 04:37:49;;;;;;;27.80;16.73;;;;;;;-0.45;100.00;97443.38;5062150;28;20478;-76
2022/01/22 04:40:17;;;;;;;29.83;17.23;;;;;;;-0.43;100.00;97441.59;5085984;28;20466;-77
2022/01/22 04:42:43;;;;;;;30.50;18.07;;;;;;;-0.43;100.00;97442.44;5049839;28;20475;-77
2022/01/22 04:45:26;;;;;;;27.70;16.17;;;;;;;-0.38;100.00;97445.66;5049985;28;21055;-76
2022/01/22 04:55:54;;;;;;;28.57;17.93;;;;;;;-0.42;100.00;97446.69;5085264;28;20523;-77
2022/01/22 04:58:19;;;;;;;30.77;18.20;;;;;;;-0.40;100.00;97436.25;5050924;28;20473;-77
2022/01/22 05:00:45;;;;;;;29.87;18.00;;;;;;;-0.37;100.00;97447.34;5066456;28;20117;-77
2022/01/22 05:03:29;;;;;;;26.70;16.50;;;;;;;-0.38;100.00;97447.41;5067111;28;20032;-77
2022/01/22 05:06:16;;;;;;;32.87;17.63;;;;;;;-0.36;100.00;97454.19;5051959;28;20483;-77
2022/01/22 05:08:53;;;;;;;28.40;17.17;;;;;;;-0.35;100.00;97455.88;5063900;28;20497;-77
2022/01/22 05:11:24;;;;;;;30.37;17.50;;;;;;;-0.37;100.00;97457.69;5041293;28;20471;-77
2022/01/22 05:13:52;;;;;;;28.97;16.70;;;;;;;-0.34;100.00;97462.69;5050385;28;20468;-77
2022/01/22 05:16:19;;;;;;;34.87;17.07;;;;;;;-0.38;100.00;97455.97;5056804;28;20529;-76
2022/01/22 05:18:54;;;;;;;31.57;17.37;;;;;;;-0.37;100.00;97452.53;5069441;28;20492;-77
2022/01/22 05:21:24;;;;;;;30.07;17.20;;;;;;;-0.36;100.00;97449.03;5063196;28;20466;-77
2022/01/22 05:23:53;;;;;;;26.83;17.07;;;;;;;-0.33;100.00;97454.06;5068607;28;20458;-77
2022/01/22 05:37:59;;;;;;;30.63;18.23;;;;;;;-0.32;100.00;97466.09;5060885;28;20441;-77
2022/01/22 05:40:25;;;;;;;36.07;19.60;;;;;;;-0.33;100.00;97467.00;5061432;28;20561;-77
2022/01/22 05:42:52;;;;;;;30.80;18.63;;;;;;;-0.33;100.00;97466.16;5056361;28;20450;-76
2022/01/22 05:45:18;;;;;;;32.27;18.07;;;;;;;-0.29;100.00;97476.28;5055473;28;20466;-77
2022/01/22 05:47:45;;;;;;;33.97;16.90;;;;;;;-0.29;100.00;97470.28;5052546;28;20060;-77
2022/01/22 05:50:24;;;;;;;31.37;17.50;;;;;;;-0.29;100.00;97481.47;5049703;28;20032;-77
2022/01/22 05:52:58;;;;;;;32.23;19.33;;;;;;;-0.32;100.00;97481.59;5048430;28;20471;-77
2022/01/22 05:59:35;;;;;;;31.47;18.57;;;;;;;-0.31;100.00;97480.69;5061417;28;20570;-77
2022/01/22 06:01:02;;;;;;;30.20;19.23;;;;;;;-0.30;100.00;97487.56;5065360;28;20467;-76
2022/01/22 06:03:47;;;;;;;30.10;16.57;;;;;;;-0.29;100.00;97496.97;5066788;28;20438;-77
2022/01/22 06:06:14;;;;;;;34.33;19.93;;;;;;;-0.29;100.00;97490.97;5046702;28;20465;-77
2022/01/22 06:08:47;;;;;;;32.50;18.47;;;;;;;-0.26;100.00;97491.69;5056598;28;20591;-77
2022/01/22 06:11:21;;;;;;;35.22;17.98;;;;;;;-0.31;100.00;97488.44;5046974;28;20517;-78
2022/01/22 06:13:48;;;;;;;26.92;17.23;;;;;;;-0.29;100.00;97490.97;5079174;28;20032;-77
2022/01/22 06:16:22;;;;;;;31.33;17.08;;;;;;;-0.33;100.00;97490.25;5070225;28;20024;-77
2022/01/22 06:19:03;;;;;;;28.93;17.50;;;;;;;-0.33;100.00;97492.84;5064724;28;20101;-77
2022/01/22 06:21:29;;;;;;;29.03;18.10;;;;;;;-0.32;100.00;97484.16;5051645;28;20503;-77
2022/01/22 06:23:55;;;;;;;32.03;18.43;;;;;;;-0.34;100.00;97485.97;5048390;28;20024;-76
2022/01/22 06:26:21;;;;;;;31.90;18.40;;;;;;;-0.34;100.00;97483.38;5060772;28;20478;-77
2022/01/22 06:28:47;;;;;;;27.80;17.37;;;;;;;-0.33;100.00;97484.25;5049886;28;20461;-76
2022/01/22 06:31:18;;;;;;;31.07;17.40;;;;;;;-0.32;100.00;97489.34;5052236;28;20738;-76
2022/01/22 06:33:45;;;;;;;28.20;17.23;;;;;;;-0.30;100.00;97500.47;5045900;28;21264;-77
2022/01/22 06:36:15;;;;;;;32.70;17.90;;;;;;;-0.36;100.00;97492.97;5040322;28;20492;-76
2022/01/22 06:38:42;;;;;;;30.90;17.37;;;;;;;-0.35;100.00;97489.47;5062749;28;20035;-77
2022/01/22 06:41:46;;;;;;;32.13;17.90;;;;;;;-0.34;100.00;97498.06;4998612;28;20883;-77
2022/01/22 06:44:24;;;;;;;27.60;16.30;;;;;;;-0.34;100.00;97501.47;5043505;28;20524;-76
2022/01/22 06:46:55;;;;;;;30.40;17.30;;;;;;;-0.34;100.00;97500.63;5041818;28;20502;-76
2022/01/22 06:49:39;;;;;;;27.63;15.50;;;;;;;-0.38;100.00;97507.66;5068407;28;20422;-77
2022/01/22 06:52:27;;;;;;;25.87;15.60;;;;;;;-0.37;100.00;97511.97;5069656;28;20630;-76
2022/01/22 06:54:58;;;;;;;30.23;18.50;;;;;;;-0.38;100.00;97505.09;5043154;28;20497;-76
2022/01/22 06:57:23;;;;;;;31.47;17.60;;;;;;;-0.39;100.00;97506.00;5066493;28;20463;-77
2022/01/22 06:59:49;;;;;;;31.70;16.43;;;;;;;-0.41;100.00;97507.78;5050227;28;20469;-78
2022/01/22 07:02:18;;;;;;;32.20;17.47;;;;;;;-0.36;100.00;97520.56;5064553;28;20115;-76
2022/01/22 07:04:44;;;;;;;27.17;15.87;;;;;;;-0.36;100.00;97510.22;5051271;28;20467;-77
2022/01/22 07:07:39;;;;;;;30.57;16.83;;;;;;;-0.33;100.00;97510.94;5047959;28;20554;-76
2022/01/22 07:10:05;;;;;;;28.30;16.93;;;;;;;-0.36;100.00;97518.81;5070446;28;20875;-78
2022/01/22 07:12:34;;;;;;;29.17;16.87;;;;;;;-0.38;100.00;97517.19;5040865;28;20028;-77
2022/01/22 07:15:00;;;;;;;29.80;16.33;;;;;;;-0.37;100.00;97517.13;5041334;28;21073;-78
2022/01/22 07:17:29;;;;;;;31.10;16.37;;;;;;;-0.39;100.00;97520.66;5045487;28;20467;-77
2022/01/22 07:20:06;;;;;;;31.03;18.47;;;;;;;-0.43;100.00;97530.28;5050754;28;20575;-77
2022/01/22 07:25:08;;;;;;;33.27;17.80;;;;;;;-0.40;100.00;97530.16;5074547;28;21237;-76
2022/01/22 07:27:33;;;;;;;33.60;17.03;;;;;;;-0.39;100.00;97528.44;5054948;28;20684;-77
2022/01/22 07:30:00;;;;;;;30.10;16.97;;;;;;;-0.42;100.00;97524.22;5052978;28;20038;-77
2022/01/22 07:32:36;;;;;;;26.30;15.40;;;;;;;-0.43;100.00;97530.28;5061042;28;20545;-77
2022/01/22 07:35:04;;;;;;;27.43;17.20;;;;;;;-0.44;100.00;97533.75;5045830;28;20035;-78
2022/01/22 07:37:31;;;;;;;36.00;20.07;;;;;;;-0.44;100.00;97528.59;5057007;28;20478;-77
2022/01/22 07:40:09;;;;;;;34.93;20.90;;;;;;;-0.45;100.00;97541.56;5046934;28;20470;-77
2022/01/22 07:43:05;;;;;;;30.40;19.37;;;;;;;-0.41;100.00;97546.56;5049162;28;21054;-77
2022/01/22 07:45:49;;;;;;;37.10;21.97;;;;;;;-0.38;100.00;97541.28;5084085;28;20516;-76
2022/01/22 07:48:23;;;;;;;28.60;17.03;;;;;;;-0.41;100.00;97550.88;5046402;28;20486;-78
2022/01/22 07:51:09;;;;;;;32.27;19.10;;;;;;;-0.43;100.00;97545.78;5065514;28;20457;-77
2022/01/22 07:53:35;;;;;;;29.27;17.97;;;;;;;-0.40;100.00;97544.81;5058208;28;21135;-77
2022/01/22 07:56:08;;;;;;;26.77;17.40;;;;;;;-0.41;100.00;97549.13;5051055;28;20451;-76
2022/01/22 07:58:33;;;;;;;27.90;16.97;;;;;;;-0.38;100.00;97543.84;5075301;28;20543;-77
2022/01/22 08:01:00;;;;;;;30.67;17.40;;;;;;;-0.38;100.00;97549.03;5051695;28;20475;-76
2022/01/22 08:03:33;;;;;;;27.00;16.00;;;;;;;-0.43;100.00;97542.38;5060620;28;20021;-77
2022/01/22 08:06:18;;;;;;;32.73;15.17;;;;;;;-0.37;100.00;97550.72;5052466;28;20487;-77
2022/01/22 08:09:02;;;;;;;;;;;;;;;-0.45;100.00;97547.59;5061599;28;20448;-77
2022/01/22 08:11:46;;;;;;;19.25;11.23;;;;;;;-0.45;100.00;97555.34;5065548;28;19932;-76
2022/01/22 08:14:12;;;;;;;24.20;14.63;;;;;;;-0.40;100.00;97556.00;5060669;28;20068;-77
2022/01/22 08:16:38;;;;;;;26.27;15.50;;;;;;;-0.44;100.00;97549.25;5046119;28;20051;-76
2022/01/22 08:19:04;;;;;;;29.70;16.93;;;;;;;-0.45;100.00;97557.91;5048768;28;20465;-77
2022/01/22 08:21:30;;;;;;;25.20;16.30;;;;;;;-0.42;100.00;97562.97;5043877;28;20408;-77
2022/01/22 08:24:15;;;;;;;29.60;18.43;;;;;;;-0.36;100.00;97574.84;5073850;28;20487;-77
2022/01/22 08:29:36;;;;;;;35.97;19.90;;;;;;;-0.34;100.00;97567.84;5066648;28;20488;-77
2022/01/22 08:37:23;;;;;;;25.57;17.10;;;;;;;-0.25;100.00;97575.25;5055686;28;20983;-77
2022/01/22 08:39:49;;;;;;;28.27;17.20;;;;;;;-0.27;100.00;97571.88;5056417;28;20823;-78
2022/01/22 08:42:15;;;;;;;28.97;17.03;;;;;;;-0.27;100.00;97564.13;5046353;28;20454;-77
2022/01/22 08:44:42;;;;;;;33.73;18.30;;;;;;;-0.22;100.00;97575.13;5054163;28;20069;-77
2022/01/22 08:47:14;;;;;;;30.88;17.92;;;;;;;-0.19;100.00;97585.34;5057646;28;20942;-78
2022/01/22 08:49:40;;;;;;;37.13;21.53;;;;;;;-0.24;100.00;97582.09;5060210;28;20151;-74
2022/01/22 08:52:13;;;;;;;37.20;21.23;;;;;;;-0.20;100.00;97585.41;5048255;28;20451;-75
2022/01/22 08:54:40;;;;;;;41.80;21.37;;;;;;;-0.18;100.00;97597.38;5042302;28;20481;-76
2022/01/22 08:57:07;;;;;;;40.90;23.53;;;;;;;-0.16;100.00;97597.31;5048913;28;20545;-76
2022/01/22 08:59:40;;;;;;;61.42;37.75;;;;;;;-0.19;100.00;97589.69;5047310;28;20471;-77
2022/01/22 09:02:07;;;;;;;67.40;42.93;;;;;;;-0.17;100.00;97590.44;5068775;28;20032;-77
2022/01/22 09:05:01;;;;;;;27.92;16.90;;;;;;;-0.15;100.00;97591.25;5044954;28;20573;-76
2022/01/22 09:07:58;;;;;;;40.57;22.50;;;;;;;-0.17;100.00;97593.03;5044915;28;20055;-76
2022/01/22 09:10:44;;;;;;;30.13;19.17;;;;;;;-0.10;100.00;97597.06;5079346;28;20498;-77
2022/01/22 09:13:25;;;;;;;39.07;20.50;;;;;;;-0.09;100.00;97596.19;5053155;28;20486;-79
2022/01/22 09:16:04;;;;;;;33.87;19.50;;;;;;;-0.08;100.00;97601.28;5057486;28;20489;-76
2022/01/22 09:18:30;;;;;;;31.33;19.07;;;;;;;-0.08;100.00;97603.03;5041819;28;21103;-78
2022/01/22 09:23:23;;;;;;;35.40;19.57;;;;;;;-0.05;100.00;97603.75;5071796;28;20031;-78
2022/01/22 09:25:49;;;;;;;34.73;19.23;;;;;;;-0.08;100.00;97613.38;5090675;28;20503;-79
2022/01/22 09:28:15;;;;;;;32.10;17.93;;;;;;;-0.12;100.00;97606.63;5080400;28;21033;-79
2022/01/22 09:30:47;;;;;;;29.57;17.67;;;;;;;-0.09;100.00;97609.94;5050236;28;20470;-80
2022/01/22 09:33:15;;;;;;;34.03;19.10;;;;;;;-0.04;100.00;97609.75;5045711;28;20542;-80
2022/01/22 09:35:59;;;;;;;29.47;17.43;;;;;;;-0.03;100.00;97611.47;5063657;28;21051;-79
2022/01/22 09:38:48;;;;;;;31.70;20.07;;;;;;;-0.02;100.00;97613.97;5058093;28;20471;-78
2022/01/22 09:41:15;;;;;;;30.87;19.03;;;;;;;-0.02;100.00;97616.56;5065308;28;20470;-77
2022/01/22 09:44:05;;;;;;;34.03;19.33;;;;;;;-0.04;100.00;97612.34;5071761;28;20059;-78
2022/01/22 09:46:53;;;;;;;37.57;20.50;;;;;;;0.00;100.00;97619.09;5022339;28;20455;-77
2022/01/22 09:49:31;;;;;;;32.07;19.23;;;;;;;-0.06;100.00;97622.75;5052397;28;20459;-77
2022/01/22 09:52:17;;;;;;;37.70;25.97;;;;;;;-0.06;100.00;97622.75;5042499;28;20518;-77
2022/01/22 09:55:18;;;;;;;43.73;24.57;;;;;;;-0.05;100.00;97626.19;5043606;28;20475;-76
2022/01/22 09:57:58;;;;;;;41.07;29.20;;;;;;;-0.05;100.00;97628.75;5065258;28;20542;-79
2022/01/22 10:00:37;;;;;;;38.40;22.37;;;;;;;-0.04;100.00;97630.44;5055062;28;20545;-76
2022/01/22 10:03:19;;;;;;;36.13;21.17;;;;;;;-0.03;100.00;97626.97;5054613;28;20473;-75
2022/01/22 10:06:18;;;;;;;31.57;19.97;;;;;;;0.01;100.00;97638.88;5050951;28;20467;-78
2022/01/22 10:09:25;;;;;;;29.90;19.40;;;;;;;-0.01;100.00;97648.44;5040238;28;20457;-77
2022/01/22 10:12:16;;;;;;;34.97;18.58;;;;;;;0.03;100.00;97642.22;5048527;28;21024;-80
2022/01/22 10:15:12;;;;;;;32.67;17.77;;;;;;;-0.03;100.00;97645.06;5062772;28;20042;-77
2022/01/22 10:17:52;;;;;;;30.63;20.23;;;;;;;0.01;100.00;97644.06;5065798;28;20462;-79
2022/01/22 10:20:29;;;;;;;34.23;19.93;;;;;;;0.00;100.00;97650.13;5066860;28;20476;-79
2022/01/22 10:23:00;;;;;;;30.17;17.70;;;;;;;0.03;100.00;97641.38;5053816;28;20462;-80
2022/01/22 10:25:38;;;;;;;31.93;18.30;;;;;;;-0.02;100.00;97647.59;5072450;28;21009;-82
2022/01/22 10:28:12;;;;;;;33.57;19.53;;;;;;;-0.02;100.00;97652.75;5045195;28;20539;-79
2022/01/22 10:30:43;;;;;;;33.63;19.87;;;;;;;-0.02;100.00;97644.16;5066769;28;20506;-79
2022/01/22 10:36:19;;;;;;;28.87;19.93;;;;;;;0.01;100.00;97638.88;5074053;28;20446;-79
2022/01/22 10:39:24;;;;;;;29.03;18.07;;;;;;;-0.02;100.00;97636.41;5074109;28;20426;-79
2022/01/22 10:41:50;;;;;;;28.53;18.13;;;;;;;-0.03;100.00;97638.16;5043440;28;20466;-79
2022/01/22 10:44:36;;;;;;;30.90;17.63;;;;;;;-0.04;100.00;97636.44;5058996;28;20538;-80
2022/01/22 10:47:03;;;;;;;29.40;17.60;;;;;;;-0.02;100.00;97628.66;5072305;28;20474;-80
2022/01/22 10:49:30;;;;;;;30.50;17.73;;;;;;;-0.02;100.00;97619.16;5081561;28;20447;-80
2022/01/22 10:52:07;;;;;;;28.40;16.60;;;;;;;-0.01;100.00;97614.81;5050061;28;20486;-80
2022/01/22 10:54:35;;;;;;;29.50;17.07;;;;;;;-0.06;100.00;97616.75;5047886;28;20561;-80
2022/01/22 10:57:18;;;;;;;26.03;16.00;;;;;;;-0.06;100.00;97616.75;5047903;28;20462;-80
2022/01/22 10:59:49;;;;;;;28.05;16.88;;;;;;;-0.10;100.00;97616.03;5069625;28;20458;-80
2022/01/22 11:02:17;;;;;;;32.00;17.70;;;;;;;-0.08;100.00;97614.19;5049800;28;20036;-79
2022/01/22 11:04:45;;;;;;;31.47;16.57;;;;;;;-0.07;100.00;97613.31;5031567;28;20817;-80
2022/01/22 11:07:19;;;;;;;23.07;15.27;;;;;;;-0.11;100.00;97618.66;5049604;28;20454;-80
2022/01/22 11:09:45;;;;;;;;;;;;;;;-0.10;100.00;97612.56;5041686;28;20474;-80
2022/01/22 11:12:11;;;;;;;27.67;16.10;;;;;;;-0.14;100.00;97611.00;5048649;28;19995;-79
2022/01/22 11:14:38;;;;;;;25.63;15.77;;;;;;;-0.12;100.00;97606.63;5058442;28;20465;-78
2022/01/22 11:17:06;;;;;;;26.27;16.53;;;;;;;-0.12;100.00;97606.63;5042259;28;21005;-78
2022/01/22 11:19:34;;;;;;;25.60;15.63;;;;;;;-0.11;100.00;97613.47;5065260;28;20465;-80
2022/01/22 11:22:05;;;;;;;23.50;15.20;;;;;;;-0.09;100.00;97617.69;5064192;28;20487;-79
2022/01/22 11:24:35;;;;;;;23.33;14.87;;;;;;;-0.03;100.00;97614.88;5064887;28;20560;-79
2022/01/22 11:27:04;;;;;;;26.47;16.63;;;;;;;-0.09;100.00;97622.88;5053983;28;20500;-79
2022/01/22 11:29:49;;;;;;;24.80;15.63;;;;;;;-0.06;100.00;97617.59;5042030;28;21087;-79
2022/01/22 11:32:18;;;;;;;22.77;15.20;;;;;;;-0.07;100.00;97625.38;5082068;28;20443;-80
2022/01/22 11:34:45;;;;;;;27.30;15.60;;;;;;;-0.04;100.00;97617.50;5036878;28;21049;-78
2022/01/22 11:37:35;;;;;;;24.20;15.63;;;;;;;-0.03;100.00;97616.63;5047432;28;20466;-78
2022/01/22 11:40:12;;;;;;;25.67;15.53;;;;;;;-0.01;100.00;97615.66;5059013;28;20490;-80
2022/01/22 11:45:36;;;;;;;27.77;15.90;;;;;;;0.07;100.00;97610.19;5064270;28;20426;-80
2022/01/22 11:48:18;;;;;;;24.77;14.87;;;;;;;0.08;100.00;97614.44;5046497;28;20457;-78
2022/01/22 11:50:53;;;;;;;26.13;13.90;;;;;;;0.21;100.00;97612.22;5054435;28;20462;-80
2022/01/22 11:53:24;;;;;;;37.70;20.40;;;;;;;0.23;100.00;97615.56;5062493;28;20506;-79
2022/01/22 11:56:09;;;;;;;76.10;38.33;;;;;;;0.20;100.00;97613.09;5049168;28;20481;-81
2022/01/22 11:58:56;;;;;;;37.17;21.13;;;;;;;0.21;100.00;97620.81;5063757;28;20458;-79
2022/01/22 12:01:52;;;;;;;27.80;17.33;;;;;;;0.18;100.00;97610.59;5057407;28;20476;-80
2022/01/22 12:04:45;;;;;;;25.53;15.80;;;;;;;0.11;100.00;97604.00;5056856;28;20465;-80
2022/01/22 12:07:14;;;;;;;28.27;17.90;;;;;;;0.20;100.00;97595.00;5068403;28;20486;-79
2022/01/22 12:16:08;;;;;;;28.80;17.30;;;;;;;0.20;100.00;97584.66;4998788;28;20473;-80
2022/01/22 12:18:38;;;;;;;33.50;18.70;;;;;;;0.28;100.00;97581.78;5029128;28;20467;-80
2022/01/22 12:23:33;;;;;;;34.87;21.13;;;;;;;0.31;100.00;97595.41;5078964;28;20470;-80
2022/01/22 12:26:01;;;;;;;32.07;18.60;;;;;;;0.36;100.00;97597.81;5053293;28;20470;-79
2022/01/22 12:28:38;;;;;;;26.20;17.07;;;;;;;0.33;100.00;97590.16;5066320;28;20454;-79
2022/01/22 12:31:06;;;;;;;37.63;22.60;;;;;;;0.36;100.00;97593.47;5054333;28;20526;-79
2022/01/22 12:33:32;;;;;;;35.27;22.17;;;;;;;0.31;100.00;97594.59;5051523;28;20482;-80
2022/01/22 12:36:04;;;;;;;26.53;15.67;;;;;;;0.28;100.00;97594.72;5061407;28;20470;-80
2022/01/22 12:38:46;;;;;;;29.57;20.10;;;;;;;0.33;100.00;97608.28;5045101;28;20032;-79
2022/01/22 12:44:29;;;;;;;26.90;16.80;;;;;;;0.31;100.00;97610.13;5073902;28;20463;-80
2022/01/22 12:47:06;;;;;;;29.70;17.30;;;;;;;0.32;100.00;97602.28;5065381;28;20066;-80
2022/01/22 12:49:34;;;;;;;30.13;17.17;;;;;;;0.34;100.00;97599.63;5093222;28;20653;-80
2022/01/22 12:52:04;;;;;;;27.40;17.17;;;;;;;0.32;100.00;97594.50;5071821;28;20462;-78
2022/01/22 12:54:36;;;;;;;30.00;18.27;;;;;;;0.40;100.00;97597.66;5043932;28;20842;-80
2022/01/22 12:57:10;;;;;;;25.45;15.73;;;;;;;0.38;100.00;97604.63;5058018;28;20062;-80
2022/01/22 13:00:01;;;;;;;40.63;24.05;;;;;;;0.38;100.00;97601.19;5050981;28;20911;-77
2022/01/22 13:02:45;;;;;;;33.33;19.30;;;;;;;0.38;100.00;97596.00;5066798;28;20035;-78
2022/01/22 13:05:15;;;;;;;37.47;20.13;;;;;;;0.39;100.00;97598.53;5062852;28;20024;-78
2022/01/22 13:08:01;;;;;;;34.03;19.00;;;;;;;0.42;100.00;97600.16;5078419;28;20047;-80
2022/01/22 13:10:48;;;;;;;35.03;19.70;;;;;;;0.37;100.00;97595.19;5071559;28;20489;-79
2022/01/22 13:13:18;;;;;;;39.10;20.67;;;;;;;0.44;100.00;97600.94;5070594;28;20541;-79
2022/01/22 13:15:44;;;;;;;36.07;20.47;;;;;;;0.39;100.00;97600.28;5068527;28;20771;-78
2022/01/22 13:18:10;;;;;;;41.10;21.20;;;;;;;0.43;100.00;97604.41;5056223;28;20025;-80
2022/01/22 13:20:36;;;;;;;55.00;29.10;;;;;;;0.40;100.00;97600.22;5069052;28;20032;-80
2022/01/22 13:23:19;;;;;;;66.47;36.80;;;;;;;0.38;100.00;97607.19;5055190;28;20405;-80
2022/01/22 13:25:45;;;;;;;54.03;31.60;;;;;;;0.39;100.00;97611.47;5054596;28;20463;-80
2022/01/22 13:28:16;;;;;;;47.60;29.00;;;;;;;0.38;100.00;97608.94;5081148;28;20051;-78